Time;durP1;ratioP1;P1;durP2;ratioP2;P2;SDS_P1;SDS_P2;PMS_P1;PMS_P2;Temp;Humidity;BMP_temperature;BMP_pressure;BME280_temperature;BME280_humidity;BME280_pressure;Samples;Min_cycle;Max_cycle;Signal;HPM_P1;HPM_P2
2023/06/07 00:00:34;;;;;;;5.53;3.00;;;;;;;15.47;62.72;99553.47;5103569;28;20040;-63
2023/06/07 00:03:01;;;;;;;4.47;2.92;;;;;;;15.36;63.07;99554.53;5104777;28;20063;-63
2023/06/07 00:05:31;;;;;;;4.88;2.80;;;;;;;15.39;63.41;99552.09;5105126;28;20086;-63
2023/06/07 00:07:58;;;;;;;9.03;3.20;;;;;;;15.43;64.01;99553.19;5108549;28;20140;-63
2023/06/07 00:10:26;;;;;;;5.20;3.17;;;;;;;15.22;64.49;99549.59;5102413;28;20292;-63
2023/06/07 00:12:54;;;;;;;8.55;3.17;;;;;;;15.18;64.66;99556.63;5098807;28;20112;-63
2023/06/07 00:15:22;;;;;;;6.00;3.33;;;;;;;15.07;61.79;99544.16;5103703;28;20055;-63
2023/06/07 00:17:49;;;;;;;10.13;3.20;;;;;;;15.00;61.06;99552.53;5100638;28;20065;-63
2023/06/07 00:20:17;;;;;;;5.05;2.90;;;;;;;15.04;61.00;99556.28;5104885;28;20050;-63
2023/06/07 00:22:47;;;;;;;6.32;2.78;;;;;;;14.99;61.59;99547.38;5095270;28;20327;-63
2023/06/07 00:25:14;;;;;;;;;;;;;;;14.93;61.42;99549.25;5096243;28;20078;-64
2023/06/07 00:27:41;;;;;;;9.20;3.20;;;;;;;14.86;61.30;99551.38;5102279;28;19930;-63
2023/06/07 00:30:12;;;;;;;5.18;3.20;;;;;;;14.92;61.53;99550.31;5100561;28;20148;-63
2023/06/07 00:32:40;;;;;;;5.22;3.10;;;;;;;14.94;62.38;99550.06;5105455;28;20046;-63
2023/06/07 00:35:08;;;;;;;7.65;3.28;;;;;;;14.93;61.16;99546.56;5097433;28;20134;-63
2023/06/07 00:37:36;;;;;;;5.10;3.03;;;;;;;14.84;62.40;99548.13;5099116;28;20130;-63
2023/06/07 00:40:04;;;;;;;7.68;3.08;;;;;;;14.59;62.31;99544.19;5104727;28;20077;-63
2023/06/07 00:42:32;;;;;;;6.95;3.60;;;;;;;14.56;62.00;99542.03;5091210;28;20052;-63
2023/06/07 00:45:00;;;;;;;7.40;3.35;;;;;;;14.44;62.35;99544.91;5101725;28;20390;-63
2023/06/07 00:47:28;;;;;;;4.75;3.25;;;;;;;14.41;62.48;99540.03;5105674;28;20154;-63
2023/06/07 00:49:56;;;;;;;4.80;3.20;;;;;;;14.31;63.10;99534.56;5101813;28;20488;-63
2023/06/07 00:52:23;;;;;;;5.03;3.03;;;;;;;14.35;62.39;99535.69;5095816;28;20055;-63
2023/06/07 00:54:51;;;;;;;10.48;3.28;;;;;;;14.48;62.29;99530.88;5103100;27;20097;-63
2023/06/07 00:57:19;;;;;;;17.05;6.90;;;;;;;14.38;62.89;99539.75;5099797;27;20135;-63
2023/06/07 00:59:46;;;;;;;6.80;3.20;;;;;;;14.02;68.35;99539.47;5096717;28;20047;-63
2023/06/07 01:02:14;;;;;;;7.95;4.40;;;;;;;14.03;67.74;99538.41;5094818;28;20048;-63
2023/06/07 01:04:43;;;;;;;5.20;3.85;;;;;;;13.98;67.29;99546.47;5093406;28;20059;-63
2023/06/07 01:07:11;;;;;;;7.90;5.05;;;;;;;13.88;72.85;99544.47;5104272;28;20044;-63
2023/06/07 01:09:41;;;;;;;7.35;3.80;;;;;;;13.55;72.40;99548.19;5105509;28;20142;-62
2023/06/07 01:12:09;;;;;;;6.88;3.80;;;;;;;13.50;69.98;99546.25;5105090;28;20058;-62
2023/06/07 01:14:37;;;;;;;7.75;3.90;;;;;;;13.58;69.22;99537.75;5094767;28;20135;-63
2023/06/07 01:17:05;;;;;;;8.38;3.60;;;;;;;13.63;68.21;99550.47;5104052;28;20058;-62
2023/06/07 01:19:34;;;;;;;6.95;3.53;;;;;;;13.58;68.74;99542.31;5098335;28;20512;-62
2023/06/07 01:22:05;;;;;;;5.78;3.22;;;;;;;13.49;68.80;99538.44;5094353;28;20075;-63
2023/06/07 01:24:35;;;;;;;4.55;3.00;;;;;;;13.70;68.05;99539.44;5095415;28;20044;-63
2023/06/07 01:27:07;;;;;;;10.73;3.40;;;;;;;13.74;67.83;99535.19;5101681;28;20534;-62
2023/06/07 01:29:34;;;;;;;7.03;3.45;;;;;;;13.76;67.98;99538.44;5095767;28;20032;-63
2023/06/07 01:32:06;;;;;;;8.43;4.10;;;;;;;13.80;65.90;99534.16;5093820;28;20040;-62
2023/06/07 01:34:33;;;;;;;5.25;3.40;;;;;;;13.81;65.33;99525.03;5105452;28;20040;-63
2023/06/07 01:37:01;;;;;;;8.52;3.80;;;;;;;13.88;67.28;99536.41;5102828;28;20039;-62
2023/06/07 01:39:28;;;;;;;6.25;3.50;;;;;;;13.94;68.36;99535.38;5102611;28;20043;-65
2023/06/07 01:41:57;;;;;;;8.80;3.30;;;;;;;13.61;67.61;99538.31;5104965;28;20071;-62
2023/06/07 01:44:24;;;;;;;5.80;3.20;;;;;;;13.64;68.52;99535.91;5099682;28;20032;-62
2023/06/07 01:46:52;;;;;;;4.80;3.08;;;;;;;13.67;68.79;99526.50;5093533;28;20047;-63
2023/06/07 01:49:20;;;;;;;7.45;3.50;;;;;;;13.69;70.46;99527.06;5092463;28;20039;-62
2023/06/07 01:51:47;;;;;;;6.63;3.50;;;;;;;13.61;71.76;99525.66;5089969;28;20421;-63
2023/06/07 01:54:15;;;;;;;10.65;3.55;;;;;;;13.52;69.88;99524.47;5101882;28;20044;-62
2023/06/07 01:56:48;;;;;;;5.93;3.42;;;;;;;13.53;69.21;99524.22;5105499;28;20127;-62
2023/06/07 01:59:20;;;;;;;7.15;3.13;;;;;;;13.66;69.35;99511.44;5101995;28;20040;-62
2023/06/07 02:01:51;;;;;;;6.35;3.58;;;;;;;13.79;67.90;99519.06;5102664;28;20097;-63
2023/06/07 02:04:20;;;;;;;7.65;3.50;;;;;;;13.79;67.19;99513.69;5094184;28;20105;-62
2023/06/07 02:06:49;;;;;;;5.65;3.75;;;;;;;13.88;66.89;99511.31;5094879;28;20514;-62
2023/06/07 02:09:17;;;;;;;7.68;3.47;;;;;;;13.99;67.74;99513.03;5101300;28;20132;-62
2023/06/07 02:11:44;;;;;;;6.55;3.35;;;;;;;14.15;67.23;99509.41;5096172;28;20036;-62
2023/06/07 02:14:11;;;;;;;6.20;3.50;;;;;;;13.96;70.11;99511.66;5100293;28;20047;-62
2023/06/07 02:16:40;;;;;;;6.35;3.08;;;;;;;14.05;69.09;99508.50;5094906;28;20797;-62
2023/06/07 02:19:11;;;;;;;8.07;3.42;;;;;;;14.09;69.53;99510.41;5104077;28;20076;-62
2023/06/07 02:21:50;;;;;;;7.22;3.33;;;;;;;14.08;71.03;99514.19;5096953;28;20043;-62
2023/06/07 02:24:19;;;;;;;6.60;3.88;;;;;;;14.13;68.32;99521.50;5094943;28;20550;-62
2023/06/07 02:26:47;;;;;;;5.20;3.35;;;;;;;13.99;70.00;99516.53;5103594;28;20547;-62
2023/06/07 02:29:15;;;;;;;6.15;3.10;;;;;;;14.02;71.00;99515.22;5100229;28;20040;-63
2023/06/07 02:31:45;;;;;;;6.10;3.40;;;;;;;14.03;73.58;99517.66;5101835;28;20443;-63
2023/06/07 02:34:12;;;;;;;7.05;3.65;;;;;;;13.96;74.04;99522.44;5095972;28;20048;-63
2023/06/07 02:36:40;;;;;;;5.75;3.45;;;;;;;14.00;73.07;99523.56;5099470;28;20055;-63
2023/06/07 02:39:08;;;;;;;8.00;3.55;;;;;;;14.00;74.31;99526.25;5096281;28;20044;-63
2023/06/07 02:41:35;;;;;;;5.28;3.47;;;;;;;13.95;73.86;99526.22;5093708;28;20127;-63
2023/06/07 02:44:03;;;;;;;10.55;3.55;;;;;;;14.14;72.18;99531.22;5102294;28;20155;-63
2023/06/07 02:46:31;;;;;;;6.10;3.80;;;;;;;14.17;72.54;99530.69;5089522;28;20051;-63
2023/06/07 02:49:00;;;;;;;7.03;3.60;;;;;;;14.32;71.57;99520.00;5097534;28;20443;-63
2023/06/07 02:51:29;;;;;;;6.07;3.30;;;;;;;14.18;71.84;99529.63;5111311;28;20033;-63
2023/06/07 02:53:57;;;;;;;5.03;3.20;;;;;;;14.22;74.21;99525.31;5096984;28;20195;-63
2023/06/07 02:56:29;;;;;;;6.30;3.70;;;;;;;14.27;75.75;99519.97;5097858;28;20044;-63
2023/06/07 02:58:56;;;;;;;5.93;3.92;;;;;;;14.14;78.87;99510.44;5103772;28;20058;-63
2023/06/07 03:01:27;;;;;;;8.18;3.70;;;;;;;14.16;73.79;99504.81;5093432;28;20122;-62
2023/06/07 03:03:56;;;;;;;5.28;3.40;;;;;;;13.93;75.92;99514.88;5092114;28;20531;-63
2023/06/07 03:06:29;;;;;;;5.30;3.80;;;;;;;13.78;77.32;99530.94;5104065;28;20515;-62
2023/06/07 03:09:00;;;;;;;6.53;3.80;;;;;;;13.42;83.53;99532.47;5094641;28;20359;-63
2023/06/07 03:11:29;;;;;;;5.25;3.58;;;;;;;13.79;77.35;99516.38;5096022;28;20044;-62
2023/06/07 03:13:56;;;;;;;6.75;3.60;;;;;;;13.93;75.38;99506.81;5097293;28;20393;-62
2023/06/07 03:16:29;;;;;;;8.77;4.20;;;;;;;13.98;76.18;99504.16;5096841;28;20048;-63
2023/06/07 03:19:02;;;;;;;6.75;3.97;;;;;;;13.94;81.74;99508.41;5096465;28;20077;-63
2023/06/07 03:21:31;;;;;;;7.05;4.05;;;;;;;13.80;84.62;99491.88;5100304;28;20047;-63
2023/06/07 03:24:04;;;;;;;5.90;4.10;;;;;;;13.82;84.64;99494.31;5108708;28;20127;-63
2023/06/07 03:26:32;;;;;;;8.70;3.92;;;;;;;12.95;94.50;99505.00;5087673;28;20055;-64
2023/06/07 03:29:00;;;;;;;7.78;4.20;;;;;;;12.49;98.85;99514.38;5107369;28;20055;-63
2023/06/07 03:31:31;;;;;;;6.20;4.07;;;;;;;12.16;100.00;99510.66;5099996;28;20054;-63
2023/06/07 03:34:03;;;;;;;10.40;4.40;;;;;;;12.51;99.40;99505.00;5097548;28;20577;-63
2023/06/07 03:36:33;;;;;;;8.35;4.80;;;;;;;12.92;95.47;99508.19;5099981;28;20063;-63
2023/06/07 03:39:00;;;;;;;6.35;4.30;;;;;;;13.00;96.93;99509.63;5104334;28;20071;-63
2023/06/07 03:41:29;;;;;;;6.97;4.45;;;;;;;13.12;97.75;99513.00;5096968;28;20040;-64
2023/06/07 03:44:00;;;;;;;6.78;4.50;;;;;;;13.28;96.88;99515.88;5107565;28;20486;-63
2023/06/07 03:46:31;;;;;;;5.75;3.80;;;;;;;13.39;96.94;99506.84;5104188;28;20039;-64
2023/06/07 03:48:59;;;;;;;6.35;4.03;;;;;;;13.54;93.96;99515.06;5104192;28;20048;-63
2023/06/07 03:51:27;;;;;;;10.32;4.10;;;;;;;13.63;96.61;99520.00;5107180;28;20109;-63
2023/06/07 03:53:58;;;;;;;7.30;4.50;;;;;;;13.63;96.62;99522.69;5096030;28;20048;-64
2023/06/07 03:56:27;;;;;;;7.90;4.32;;;;;;;13.62;96.04;99521.88;5103395;28;20044;-64
2023/06/07 03:58:54;;;;;;;7.00;3.85;;;;;;;13.68;95.92;99517.34;5097869;28;20048;-62
2023/06/07 04:01:25;;;;;;;5.97;4.03;;;;;;;13.55;94.35;99527.50;5100629;28;20138;-64
2023/06/07 04:03:55;;;;;;;11.77;4.32;;;;;;;13.46;90.59;99520.94;5091786;28;20107;-64
2023/06/07 04:06:24;;;;;;;7.25;4.60;;;;;;;13.61;90.39;99524.84;5107649;28;20072;-63
2023/06/07 04:08:52;;;;;;;6.13;3.80;;;;;;;13.72;91.96;99515.78;5098072;28;20100;-64
2023/06/07 04:11:21;;;;;;;6.78;4.45;;;;;;;13.73;96.74;99512.03;5091743;28;20455;-64
2023/06/07 04:13:48;;;;;;;8.57;4.00;;;;;;;13.74;97.94;99513.66;5094205;28;20039;-64
2023/06/07 04:16:17;;;;;;;10.68;3.92;;;;;;;13.61;99.14;99514.88;5103525;28;20044;-63
2023/06/07 04:18:47;;;;;;;9.43;4.25;;;;;;;13.68;97.90;99514.66;5100268;28;20470;-63
2023/06/07 04:21:14;;;;;;;6.70;4.38;;;;;;;13.63;98.90;99517.28;5130852;27;20061;-63
2023/06/07 04:23:44;;;;;;;6.10;4.20;;;;;;;13.62;96.95;99513.00;5105260;28;20040;-63
2023/06/07 04:26:19;;;;;;;5.93;4.28;;;;;;;13.49;97.19;99512.34;5108043;28;20036;-63
2023/06/07 04:28:49;;;;;;;6.80;4.22;;;;;;;13.76;90.99;99516.91;5116997;27;20044;-63
2023/06/07 04:31:22;;;;;;;5.93;3.90;;;;;;;13.79;88.26;99516.38;5103639;28;20048;-63
2023/06/07 04:33:50;;;;;;;6.63;4.25;;;;;;;13.78;89.53;99520.16;5102521;28;20393;-63
2023/06/07 04:36:19;;;;;;;11.70;4.57;;;;;;;13.66;90.26;99520.31;5103142;28;20044;-64
2023/06/07 04:38:46;;;;;;;6.18;3.92;;;;;;;13.73;89.03;99515.53;5105579;28;20036;-63
2023/06/07 04:41:14;;;;;;;7.45;4.32;;;;;;;13.81;86.70;99519.63;5094901;28;20052;-63
2023/06/07 04:43:49;;;;;;;8.15;4.38;;;;;;;13.86;85.23;99519.69;5099439;28;20493;-63
2023/06/07 04:46:21;;;;;;;5.03;4.00;;;;;;;14.05;85.06;99517.38;5095689;28;20097;-62
2023/06/07 04:48:49;;;;;;;6.88;3.92;;;;;;;14.14;82.79;99515.03;5097693;28;20128;-65
2023/06/07 04:51:20;;;;;;;6.28;3.70;;;;;;;14.29;84.30;99514.34;5101351;28;20476;-64
2023/06/07 04:53:57;;;;;;;5.97;3.63;;;;;;;14.38;83.81;99513.59;5100522;28;20521;-64
2023/06/07 04:56:26;;;;;;;6.63;3.90;;;;;;;14.33;82.90;99513.56;5086797;28;20058;-65
2023/06/07 04:58:56;;;;;;;6.78;3.95;;;;;;;14.38;82.60;99518.97;5096148;28;20427;-64
2023/06/07 05:01:27;;;;;;;8.65;4.00;;;;;;;14.41;85.80;99515.75;5098502;28;20086;-62
2023/06/07 05:03:59;;;;;;;5.93;4.00;;;;;;;14.58;86.49;99522.91;5102702;28;20035;-63
2023/06/07 05:06:29;;;;;;;11.38;3.85;;;;;;;14.03;89.35;99533.84;5098334;28;20073;-63
2023/06/07 05:08:57;;;;;;;7.43;4.70;;;;;;;14.26;92.04;99537.22;5093730;27;20073;-63
2023/06/07 05:11:24;;;;;;;9.88;4.18;;;;;;;14.33;91.39;99537.00;5080781;28;20531;-63
2023/06/07 05:13:52;;;;;;;10.23;4.10;;;;;;;14.54;89.04;99527.19;5106639;28;20047;-63
2023/06/07 05:16:24;;;;;;;11.75;4.30;;;;;;;14.71;90.69;99527.00;5105817;28;20220;-63
2023/06/07 05:18:53;;;;;;;12.30;4.05;;;;;;;15.00;89.51;99530.94;5098199;28;20047;-63
2023/06/07 05:21:22;;;;;;;7.70;4.25;;;;;;;15.14;88.98;99525.84;5095760;28;20588;-63
2023/06/07 05:23:50;;;;;;;11.18;4.15;;;;;;;14.97;92.30;99530.63;5100219;28;20121;-63
2023/06/07 05:26:18;;;;;;;9.77;4.47;;;;;;;14.46;95.44;99531.97;5105313;28;20043;-63
2023/06/07 05:28:46;;;;;;;8.55;4.65;;;;;;;14.54;96.45;99532.59;5101494;28;20039;-63
2023/06/07 05:31:14;;;;;;;7.50;4.28;;;;;;;14.55;94.32;99528.78;5100491;28;20524;-63
2023/06/07 05:33:42;;;;;;;8.02;4.00;;;;;;;14.81;94.00;99535.97;5094669;28;20036;-63
2023/06/07 05:36:11;;;;;;;11.02;4.05;;;;;;;15.16;91.12;99533.69;5103202;28;20067;-63
2023/06/07 05:38:40;;;;;;;9.02;4.10;;;;;;;15.35;89.61;99531.28;5104241;28;20497;-63
2023/06/07 05:41:07;;;;;;;6.63;4.10;;;;;;;15.19;91.41;99533.94;5095697;28;20066;-63
2023/06/07 05:43:37;;;;;;;12.23;4.30;;;;;;;15.39;90.16;99524.28;5100839;28;20390;-63
2023/06/07 05:46:06;;;;;;;8.13;4.35;;;;;;;15.47;90.85;99529.97;5107020;28;20456;-63
2023/06/07 05:48:35;;;;;;;9.65;4.40;;;;;;;15.53;87.98;99533.50;5104149;28;20036;-63
2023/06/07 05:51:06;;;;;;;11.25;4.45;;;;;;;15.67;81.23;99533.78;5102527;28;20580;-63
2023/06/07 05:53:33;;;;;;;13.65;4.38;;;;;;;15.91;80.67;99532.22;5100740;28;20575;-63
2023/06/07 05:56:01;;;;;;;11.25;4.28;;;;;;;15.80;75.94;99535.16;5097994;28;20043;-63
2023/06/07 05:58:30;;;;;;;16.63;4.57;;;;;;;15.82;77.41;99535.72;5096804;28;20050;-63
2023/06/07 06:00:58;;;;;;;12.45;4.35;;;;;;;16.12;77.41;99534.91;5101135;28;20203;-63
2023/06/07 06:03:25;;;;;;;13.05;4.40;;;;;;;16.32;72.36;99539.47;5095224;28;20048;-63
2023/06/07 06:05:54;;;;;;;13.23;4.30;;;;;;;16.31;73.60;99538.69;5100134;28;20041;-62
2023/06/07 06:08:23;;;;;;;23.63;5.15;;;;;;;16.35;71.81;99538.97;5103970;28;20101;-63
2023/06/07 06:10:51;;;;;;;21.42;4.68;;;;;;;16.44;73.86;99534.59;5095358;28;20039;-63
2023/06/07 06:13:18;;;;;;;24.05;4.60;;;;;;;16.86;72.36;99544.25;5102143;28;20055;-63
2023/06/07 06:15:46;;;;;;;22.08;4.65;;;;;;;16.88;70.61;99541.28;5095154;28;20054;-63
2023/06/07 06:18:14;;;;;;;24.67;4.80;;;;;;;16.69;71.62;99543.75;5097927;28;20428;-63
2023/06/07 06:20:45;;;;;;;26.83;5.45;;;;;;;16.76;71.51;99547.78;5090984;28;20059;-62
2023/06/07 06:23:12;;;;;;;33.78;6.28;;;;;;;16.87;71.87;99545.06;5105447;28;20089;-62
2023/06/07 06:25:41;;;;;;;22.50;5.47;;;;;;;16.84;74.04;99551.84;5104702;28;20074;-62
2023/06/07 06:28:10;;;;;;;24.17;4.72;;;;;;;16.89;75.20;99548.31;5100985;28;20081;-63
2023/06/07 06:30:37;;;;;;;24.33;4.63;;;;;;;17.07;73.49;99553.09;5103920;28;20494;-63
2023/06/07 06:33:04;;;;;;;26.20;5.55;;;;;;;16.66;74.62;99553.22;5101474;28;20524;-63
2023/06/07 06:35:33;;;;;;;19.40;4.90;;;;;;;17.57;70.63;99553.13;5100638;28;20244;-62
2023/06/07 06:38:00;;;;;;;22.85;4.80;;;;;;;18.26;68.67;99554.78;5097931;28;20391;-62
2023/06/07 06:40:28;;;;;;;13.73;4.57;;;;;;;18.01;70.47;99558.53;5089118;28;20042;-63
2023/06/07 06:42:58;;;;;;;33.53;6.45;;;;;;;17.60;70.70;99558.81;5095529;28;20431;-63
2023/06/07 06:45:36;;;;;;;13.38;4.75;;;;;;;17.43;72.12;99559.16;5096769;28;20047;-63
2023/06/07 06:48:04;;;;;;;16.65;4.45;;;;;;;17.59;70.62;99556.38;5097957;28;20158;-62
2023/06/07 06:50:32;;;;;;;18.05;5.00;;;;;;;17.37;72.45;99564.88;5090724;28;20044;-63
2023/06/07 06:52:59;;;;;;;12.98;4.90;;;;;;;17.80;70.57;99563.31;5100211;28;20513;-62
2023/06/07 06:55:27;;;;;;;23.45;5.97;;;;;;;17.75;70.84;99560.59;5099755;28;20040;-63
2023/06/07 06:57:56;;;;;;;16.58;5.20;;;;;;;17.15;73.45;99568.00;5099668;28;20048;-63
2023/06/07 07:00:24;;;;;;;18.83;4.83;;;;;;;17.79;73.72;99572.50;5085022;28;20105;-63
2023/06/07 07:02:51;;;;;;;20.88;4.53;;;;;;;18.06;70.54;99568.53;5104786;28;20459;-62
2023/06/07 07:05:18;;;;;;;14.50;4.70;;;;;;;17.92;70.87;99572.97;5106057;28;20059;-62
2023/06/07 07:07:46;;;;;;;16.05;4.78;;;;;;;17.37;72.52;99575.72;5107894;28;20035;-63
2023/06/07 07:10:13;;;;;;;9.27;4.70;;;;;;;17.79;70.90;99572.50;5102441;28;20501;-63
2023/06/07 07:12:42;;;;;;;12.30;4.53;;;;;;;18.33;69.59;99571.56;5102139;28;20036;-63
2023/06/07 07:15:11;;;;;;;12.35;4.80;;;;;;;17.76;70.21;99570.34;5109397;28;20048;-63
2023/06/07 07:17:45;;;;;;;12.00;4.38;;;;;;;18.19;67.83;99570.59;5105499;28;20143;-63
2023/06/07 07:20:13;;;;;;;9.93;4.57;;;;;;;18.42;68.10;99568.22;5106068;27;20383;-64
2023/06/07 07:22:41;;;;;;;9.32;4.60;;;;;;;19.26;65.50;99573.31;5103642;28;20054;-66
2023/06/07 07:25:09;;;;;;;11.10;4.80;;;;;;;22.05;55.99;99567.66;5098271;28;20047;-63
2023/06/07 07:27:36;;;;;;;11.02;4.45;;;;;;;23.58;50.44;99575.56;5098963;28;20032;-63
2023/06/07 07:30:05;;;;;;;9.80;4.13;;;;;;;23.33;50.98;99580.66;5101283;28;20109;-63
2023/06/07 07:32:34;;;;;;;22.73;6.10;;;;;;;23.23;51.08;99583.69;5101711;28;20101;-63
2023/06/07 07:35:01;;;;;;;18.02;4.90;;;;;;;23.60;50.29;99584.25;5096715;28;20068;-63
2023/06/07 07:37:29;;;;;;;19.88;5.65;;;;;;;21.95;53.47;99592.47;5106309;28;20067;-63
2023/06/07 07:39:57;;;;;;;18.65;5.07;;;;;;;20.28;59.76;99596.31;5100765;28;20040;-63
2023/06/07 07:42:24;;;;;;;22.77;5.82;;;;;;;19.74;62.62;99592.25;5098200;28;20417;-63
2023/06/07 07:44:51;;;;;;;33.08;6.00;;;;;;;20.16;61.60;99594.03;5104628;28;20036;-63
2023/06/07 07:47:19;;;;;;;16.30;4.82;;;;;;;19.64;62.32;99586.91;5102193;28;20074;-62
2023/06/07 07:49:48;;;;;;;20.85;5.47;;;;;;;20.09;62.27;99592.81;5100093;28;20044;-63
2023/06/07 07:52:15;;;;;;;11.90;4.70;;;;;;;19.75;62.30;99588.44;5105182;28;20118;-63
2023/06/07 07:54:43;;;;;;;14.25;5.00;;;;;;;19.68;61.65;99588.00;5103015;28;20035;-63
2023/06/07 07:57:10;;;;;;;14.75;5.05;;;;;;;19.65;62.61;99594.00;5102497;27;20044;-63
2023/06/07 07:59:38;;;;;;;26.52;5.25;;;;;;;20.04;61.84;99586.34;5101685;28;20142;-62
2023/06/07 08:02:05;;;;;;;22.38;5.63;;;;;;;19.05;64.80;99587.16;5104992;28;20067;-63
2023/06/07 08:04:32;;;;;;;15.60;5.25;;;;;;;20.28;62.43;99584.63;5095102;28;20113;-63
2023/06/07 08:07:01;;;;;;;22.90;5.50;;;;;;;20.22;62.63;99592.88;5106652;28;20449;-63
2023/06/07 08:09:29;;;;;;;15.25;5.10;;;;;;;20.40;61.43;99588.47;5101451;28;20063;-62
2023/06/07 08:11:56;;;;;;;17.58;4.85;;;;;;;21.52;57.49;99590.97;5099055;28;20448;-62
2023/06/07 08:14:24;;;;;;;20.70;5.53;;;;;;;21.72;56.63;99587.00;5101892;28;20051;-62
2023/06/07 08:16:51;;;;;;;23.60;5.40;;;;;;;21.29;58.39;99592.81;5105880;28;20044;-63
2023/06/07 08:19:19;;;;;;;18.20;5.30;;;;;;;24.01;50.79;99589.28;5099531;28;20062;-63
2023/06/07 08:21:47;;;;;;;14.68;5.22;;;;;;;25.71;46.63;99582.16;5104059;28;20067;-63
2023/06/07 08:24:17;;;;;;;17.25;4.82;;;;;;;24.45;48.48;99581.00;5100650;28;20047;-63
2023/06/07 08:26:48;;;;;;;17.10;4.80;;;;;;;25.36;47.46;99581.59;5105493;28;20062;-63
2023/06/07 08:29:15;;;;;;;15.13;4.70;;;;;;;24.86;47.30;99583.16;5094084;28;20051;-63
2023/06/07 08:31:43;;;;;;;8.90;4.20;;;;;;;24.16;48.99;99579.75;5104345;28;20050;-63
2023/06/07 08:34:10;;;;;;;13.00;4.95;;;;;;;22.86;52.16;99574.88;5105443;28;20047;-63
2023/06/07 08:36:39;;;;;;;10.10;5.10;;;;;;;21.03;56.13;99578.09;5105785;28;20059;-63
2023/06/07 08:39:07;;;;;;;16.98;5.03;;;;;;;22.70;54.80;99573.69;5099784;28;20042;-63
2023/06/07 08:41:36;;;;;;;7.72;4.20;;;;;;;24.42;49.73;99568.75;5098499;28;20040;-63
2023/06/07 08:44:03;;;;;;;10.52;4.50;;;;;;;24.92;48.72;99561.81;5097376;28;20406;-63
2023/06/07 08:46:31;;;;;;;9.55;4.35;;;;;;;25.19;47.27;99571.56;5104694;28;20066;-63
2023/06/07 08:48:59;;;;;;;11.23;4.60;;;;;;;24.25;50.47;99566.06;5096713;28;20071;-64
2023/06/07 08:51:28;;;;;;;13.65;4.35;;;;;;;26.00;45.74;99561.28;5101523;27;20443;-62
2023/06/07 08:53:56;;;;;;;11.23;4.70;;;;;;;25.42;45.96;99558.31;5093572;28;20100;-63
2023/06/07 08:56:25;;;;;;;8.98;4.50;;;;;;;25.78;45.58;99570.63;5103714;28;20051;-62
2023/06/07 08:58:53;;;;;;;15.00;4.32;;;;;;;26.96;43.66;99560.22;5103081;28;20536;-62
2023/06/07 09:01:21;;;;;;;10.90;4.65;;;;;;;26.22;43.64;99568.34;5101302;28;20051;-62
2023/06/07 09:03:51;;;;;;;12.48;4.95;;;;;;;27.37;42.36;99567.44;5102120;28;20172;-62
2023/06/07 09:06:19;;;;;;;12.10;4.28;;;;;;;26.59;43.90;99576.69;5099371;28;20046;-61
2023/06/07 09:08:47;;;;;;;11.57;4.65;;;;;;;26.21;44.65;99564.78;5098997;28;20169;-64
2023/06/07 09:11:14;;;;;;;9.88;4.53;;;;;;;25.89;44.12;99569.13;5100815;28;20051;-63
2023/06/07 09:13:42;;;;;;;10.75;4.60;;;;;;;25.68;44.79;99560.88;5091319;28;20047;-61
2023/06/07 09:16:12;;;;;;;13.02;4.80;;;;;;;24.14;48.03;99565.59;5094894;28;20052;-61
2023/06/07 09:18:43;;;;;;;7.20;4.18;;;;;;;23.93;48.76;99565.44;5102600;28;20036;-62
2023/06/07 09:21:19;;;;;;;8.40;4.50;;;;;;;23.11;50.07;99565.16;5098437;28;20032;-62
2023/06/07 09:23:46;;;;;;;14.63;4.80;;;;;;;23.15;50.61;99552.47;5106091;28;20044;-61
2023/06/07 09:26:14;;;;;;;10.60;4.90;;;;;;;23.83;48.85;99550.16;5100486;28;20036;-64
2023/06/07 09:28:42;;;;;;;10.27;4.50;;;;;;;23.12;50.86;99557.78;5104480;28;20051;-62
2023/06/07 09:31:11;;;;;;;12.30;4.53;;;;;;;22.71;51.05;99550.69;5097105;28;20473;-62
2023/06/07 09:33:38;;;;;;;11.85;4.57;;;;;;;23.26;51.58;99552.97;5091677;28;20047;-62
2023/06/07 09:36:06;;;;;;;11.07;4.72;;;;;;;23.20;50.83;99549.59;5101114;28;20040;-62
2023/06/07 09:38:34;;;;;;;9.90;5.10;;;;;;;23.19;50.69;99552.66;5098226;28;20044;-62
2023/06/07 09:41:01;;;;;;;15.80;4.97;;;;;;;24.36;48.39;99545.38;5096290;28;20406;-62
2023/06/07 09:43:29;;;;;;;14.85;5.15;;;;;;;23.85;49.33;99547.91;5093788;28;20072;-62
2023/06/07 09:45:58;;;;;;;11.77;4.85;;;;;;;24.72;47.07;99544.97;5095558;28;20047;-62
2023/06/07 09:48:26;;;;;;;16.77;5.20;;;;;;;25.63;45.21;99552.03;5099587;28;20533;-62
2023/06/07 09:50:57;;;;;;;12.25;4.28;;;;;;;26.35;44.85;99545.22;5095965;28;20047;-63
2023/06/07 09:53:24;;;;;;;14.52;4.53;;;;;;;26.79;43.07;99556.56;5101901;28;20043;-62
2023/06/07 09:55:52;;;;;;;14.57;4.55;;;;;;;27.26;43.37;99552.56;5100330;28;20570;-62
2023/06/07 09:58:20;;;;;;;12.50;4.38;;;;;;;26.47;43.79;99552.72;5102815;28;20042;-62
2023/06/07 10:00:49;;;;;;;9.13;4.57;;;;;;;25.70;44.60;99546.81;5097543;28;20044;-63
2023/06/07 10:03:17;;;;;;;14.70;4.55;;;;;;;25.68;44.93;99549.88;5097703;28;20043;-62
2023/06/07 10:05:48;;;;;;;10.07;4.18;;;;;;;24.88;46.92;99545.22;5097529;28;20048;-63
2023/06/07 10:08:16;;;;;;;10.10;4.50;;;;;;;24.62;48.09;99544.53;5100737;28;20040;-63
2023/06/07 10:10:43;;;;;;;9.23;4.60;;;;;;;24.51;47.97;99541.34;5096908;28;20067;-63
2023/06/07 10:13:11;;;;;;;11.30;4.32;;;;;;;24.74;48.95;99550.94;5098279;28;20069;-63
2023/06/07 10:15:38;;;;;;;10.63;4.18;;;;;;;25.37;46.82;99544.81;5093343;28;20784;-63
2023/06/07 10:18:10;;;;;;;12.32;4.45;;;;;;;25.69;46.50;99535.03;5101274;28;20047;-63
2023/06/07 10:20:40;;;;;;;10.18;4.30;;;;;;;26.57;44.61;99532.25;5097935;28;20501;-63
2023/06/07 10:23:11;;;;;;;8.90;4.00;;;;;;;27.67;41.61;99526.63;5105872;28;20478;-63
2023/06/07 10:25:40;;;;;;;10.30;4.18;;;;;;;28.49;40.76;99521.78;5103525;28;20156;-63
2023/06/07 10:28:13;;;;;;;9.40;4.32;;;;;;;28.41;40.49;99526.28;5099823;28;20109;-63
2023/06/07 10:30:43;;;;;;;8.25;4.00;;;;;;;25.60;45.69;99529.59;5098938;28;20485;-63
2023/06/07 10:33:10;;;;;;;8.07;3.90;;;;;;;25.87;46.17;99529.44;5104001;28;20501;-63
2023/06/07 10:35:38;;;;;;;6.55;4.25;;;;;;;24.23;47.92;99525.28;5098370;28;20098;-63
2023/06/07 10:38:05;;;;;;;7.45;3.88;;;;;;;24.21;48.90;99527.56;5098807;28;20183;-63
2023/06/07 10:40:34;;;;;;;8.32;4.40;;;;;;;24.44;48.19;99530.88;5094695;28;20056;-63
2023/06/07 10:43:02;;;;;;;7.35;3.90;;;;;;;24.41;49.64;99525.22;5097449;28;20054;-62
2023/06/07 10:45:30;;;;;;;10.18;4.65;;;;;;;24.60;48.70;99528.41;5097838;28;20047;-62
2023/06/07 10:47:57;;;;;;;12.15;4.50;;;;;;;24.83;49.04;99525.41;5097356;28;20127;-63
2023/06/07 10:50:46;;;;;;;11.88;4.45;;;;;;;24.97;48.49;99520.50;5100441;28;20075;-63
2023/06/07 10:53:14;;;;;;;9.52;4.22;;;;;;;24.90;49.37;99520.22;5097590;28;20356;-62
2023/06/07 10:55:43;;;;;;;9.88;4.32;;;;;;;23.99;49.86;99520.38;5098855;28;20048;-62
2023/06/07 10:58:29;;;;;;;6.97;4.00;;;;;;;24.90;48.25;99521.03;5095993;28;20039;-63
2023/06/07 11:00:58;;;;;;;6.20;4.53;;;;;;;24.84;47.71;99516.06;5095869;28;20075;-63
2023/06/07 11:03:41;;;;;;;6.90;4.20;;;;;;;23.82;49.94;99523.91;5100957;28;20201;-63
2023/06/07 11:06:11;;;;;;;12.07;4.55;;;;;;;25.53;46.12;99523.06;5099642;28;20041;-62
2023/06/07 11:08:39;;;;;;;9.52;4.50;;;;;;;25.05;46.44;99522.38;5096024;28;20121;-63
2023/06/07 11:11:51;;;;;;;11.98;4.43;;;;;;;25.95;45.48;99515.59;5100138;28;20485;-63
2023/06/07 11:14:20;;;;;;;9.32;4.50;;;;;;;26.22;45.89;99513.41;5100007;28;20039;-63
2023/06/07 11:16:47;;;;;;;10.75;4.30;;;;;;;26.82;44.63;99514.63;5099902;28;20091;-63
2023/06/07 11:19:16;;;;;;;9.63;4.80;;;;;;;27.15;43.19;99515.63;5102343;28;20043;-63
2023/06/07 11:22:07;;;;;;;8.93;4.45;;;;;;;27.36;44.79;99507.22;5091557;28;20573;-63
2023/06/07 11:24:38;;;;;;;5.55;4.30;;;;;;;25.78;47.82;99516.53;5097776;28;20056;-63
2023/06/07 11:27:13;;;;;;;13.13;4.93;;;;;;;25.82;47.53;99506.50;5100043;28;20054;-63
2023/06/07 11:29:43;;;;;;;19.35;5.10;;;;;;;25.94;47.68;99508.50;5093605;28;20028;-63
2023/06/07 11:32:11;;;;;;;9.75;4.63;;;;;;;25.33;48.25;99505.44;5097655;28;20942;-63
2023/06/07 11:34:39;;;;;;;9.68;5.03;;;;;;;24.68;47.86;99508.38;5096943;28;20445;-63
2023/06/07 11:37:10;;;;;;;9.25;4.28;;;;;;;24.89;48.12;99502.97;5094518;28;20139;-63